Latest Weather Observations for Cloncurry

IDQ60801

Issued at 9:13 am EST Tuesday 7 December 2021 (issued every 10 minutes, with the page automatically refreshed every 10 minutes)

About weather observations | Map of weather stations | Latest weather observations for QLD | Other Formats
Station Details ID: 029141 Name: CLONCURRY AIRPORT Lat: -20.67 Lon: 140.50 Height: 186.0 m
Data from the previous 72 hours. | See also: Recent months at Cloncurry
Date/Time
EST
Temp
°C
App
Temp
°C
Dew
Point
°C
Rel
Hum
%
Delta-T
°C
Wind Press
QNH
hPa
Press
MSL
hPa
Rain since
9am
mm
Dir  Spd
km/h
Gust
km/h
Spd
kts
Gust
kts
07/09:00am 26.1 27.9 19.5 67 4.3 ESE 9 13 5 7 1012.2 1010.8 0.0
07/08:30am 24.8 26.5 19.4 72 3.5 SSW 9 11 5 6 1012.2 1010.8 0.0
07/08:00am 24.7 24.7 18.2 67 4.1 SW 15 20 8 11 1012.4 1011.0 0.0
07/07:30am 25.5 24.1 16.9 59 5.4 SW 20 28 11 15 1012.7 1011.3 0.0
07/07:00am 25.5 24.8 16.4 57 5.6 WSW 15 22 8 12 1012.4 1011.0 0.0
07/06:30am 25.4 25.3 16.0 56 5.8 WSW 11 13 6 7 1012.0 1010.5 0.0
07/06:00am 25.3 24.3 15.6 55 5.9 SSW 15 20 8 11 1011.0 1009.5 0.0
07/05:30am 25.4 23.7 15.7 55 5.9 SSW 19 24 10 13 1010.4 1008.9 0.0
07/05:00am 25.3 24.3 16.7 59 5.4 SSW 17 26 9 14 1010.2 1008.7 0.0
07/04:30am 25.4 24.0 17.1 60 5.2 SSW 20 24 11 13 1010.1 1008.6 0.0
07/04:00am 25.8 23.3 17.2 59 5.4 SSW 26 33 14 18 1009.8 1008.3 0.0
07/03:30am 26.6 24.1 17.1 56 6.0 SSW 26 33 14 18 1009.7 1008.2 0.0
07/03:00am 26.9 25.0 16.8 54 6.3 SSW 22 32 12 17 1009.7 1008.2 0.0
07/02:30am 27.0 25.1 16.6 53 6.5 SSW 22 26 12 14 1009.8 1008.3 0.0
07/02:00am 27.4 24.9 16.1 50 7.0 SSW 24 32 13 17 1009.9 1008.4 0.0
07/01:47am 27.9 24.9 15.9 48 7.4 SW 26 41 14 22 1010.0 1008.5 0.0
07/01:30am 28.0 27.4 14.6 44 8.1 SSW 11 15 6 8 1009.9 1008.4 0.0
07/01:00am 28.9 28.4 13.9 39 9.1 ESE 9 13 5 7 1009.4 1007.9 0.0
07/12:30am 29.1 28.3 14.1 40 9.1 ESE 11 15 6 8 1009.5 1008.0 0.0
07/12:00am 28.6 30.3 17.2 50 7.2 N 4 6 2 3 1009.6 1008.1 0.0
 
Date/Time
EST
Temp
°C
App
Temp
°C
Dew
Point
°C
Rel
Hum
%
Delta-T
°C
Wind Press
QNH
hPa
Press
MSL
hPa
Rain since
9am
mm
Dir  Spd
km/h
Gust
km/h
Spd
kts
Gust
kts
06/11:30pm 28.9 30.9 16.1 46 8.0 CALM 0 0 0 0 1009.7 1008.2 0.0
06/11:00pm 28.8 31.0 16.4 47 7.8 CALM 0 0 0 0 1009.4 1007.9 0.0
06/10:30pm 29.4 29.7 14.4 40 9.1 N 6 7 3 4 1009.0 1007.5 0.0
06/10:00pm 29.8 29.4 14.0 38 9.6 N 9 11 5 6 1008.7 1007.2 0.0
06/09:30pm 30.4 28.8 12.8 34 10.5 N 13 19 7 10 1008.3 1006.8 0.0
06/09:00pm 30.7 29.6 13.0 33 10.6 N 11 15 6 8 1008.3 1006.8 0.0
06/08:30pm 31.1 30.6 13.8 34 10.5 N 9 13 5 7 1008.0 1006.5 0.0
06/08:00pm 30.8 30.3 14.8 37 9.9 N 11 13 6 7 1007.4 1006.0 0.0
06/07:30pm 31.7 31.2 13.9 34 10.9 N 9 13 5 7 1007.4 1006.0 0.0
06/07:00pm 32.3 31.3 13.5 32 11.4 NNE 11 13 6 7 1006.7 1005.2 0.0
06/06:30pm 33.0 32.4 13.6 31 11.8 N 9 17 5 9 1006.6 1005.1 0.0
06/06:00pm 33.7 33.7 13.7 30 12.3 NNE 6 15 3 8 1006.6 1005.1 0.0
06/05:30pm 34.2 33.4 14.1 29 12.4 N 11 19 6 10 1006.6 1005.1 0.0
06/05:00pm 33.7 33.0 14.2 30 12.1 NNE 11 19 6 10 1006.3 1004.8 0.0
06/04:30pm 33.4 32.8 14.5 32 11.7 N 11 19 6 10 1006.5 1005.0 0.0
06/04:00pm 33.3 32.4 14.8 32 11.5 NNE 13 22 7 12 1006.9 1005.4 0.0
06/03:30pm 32.5 31.3 14.1 32 11.3 N 13 20 7 11 1007.0 1005.5 0.0
06/03:00pm 32.9 31.5 14.5 33 11.4 NE 15 20 8 11 1007.5 1006.1 0.0
06/02:30pm 32.2 31.2 15.7 37 10.4 ENE 15 24 8 13 1008.1 1006.6 0.0
06/02:00pm 30.7 30.7 16.3 42 9.1 ENE 11 20 6 11 1008.5 1007.0 0.0
06/01:30pm 29.9 28.9 16.7 45 8.3 E 17 24 9 13 1009.1 1007.6 0.0
06/01:00pm 28.3 28.2 17.8 53 6.7 ENE 15 24 8 13 1009.6 1008.1 0.0
06/12:30pm 28.4 27.4 17.9 53 6.7 E 20 30 11 16 1010.0 1008.5 0.0
06/12:00pm 27.3 26.3 18.0 56 5.9 E 20 28 11 15 1010.5 1009.0 0.0
06/11:30am 26.6 25.7 18.2 60 5.4 E 20 24 11 13 1010.9 1009.4 0.0
06/11:00am 26.2 26.2 18.9 64 4.7 E 17 22 9 12 1011.2 1009.7 0.0
06/10:30am 25.6 24.7 18.3 64 4.7 ENE 20 26 11 14 1011.3 1009.8 0.0
06/10:00am 24.7 24.3 18.9 70 3.7 ENE 19 26 10 14 1011.8 1010.3 0.0
06/09:30am 23.9 23.5 19.0 74 3.1 ENE 19 26 10 14 1011.8 1010.3 0.0
06/09:00am 23.6 24.3 18.9 75 3.0 ENE 13 19 7 10 1012.2 1010.8 2.6
06/08:30am 23.2 22.6 18.9 77 2.7 ENE 20 30 11 16 1011.8 1010.3 2.6
06/08:00am 23.4 22.2 18.5 74 3.1 E 22 28 12 15 1011.6 1010.1 2.6
06/07:30am 23.5 23.2 18.2 72 3.4 ENE 17 22 9 12 1012.1 1010.6 2.6
06/07:00am 23.9 24.0 18.3 71 3.6 ENE 15 20 8 11 1012.0 1010.5 2.6
06/06:30am 24.0 25.2 18.2 70 3.7 ENE 9 11 5 6 1012.2 1010.8 2.6
06/06:00am 23.9 25.3 17.9 69 3.8 ESE 7 9 4 5 1011.7 1010.2 2.6
06/05:30am 24.0 23.4 17.5 67 4.1 ESE 17 20 9 11 1010.7 1009.2 2.6
06/05:00am 24.4 22.1 17.6 66 4.3 ESE 26 37 14 20 1010.4 1008.9 2.6
06/04:30am 25.2 23.1 17.1 60 5.1 ESE 24 35 13 19 1010.4 1008.9 2.6
06/04:00am 25.6 24.0 17.5 61 5.1 SE 22 33 12 18 1009.5 1008.0 2.6
06/03:30am 26.0 26.5 17.4 59 5.4 SE 11 15 6 8 1009.0 1007.5 2.6
06/03:00am 25.5 27.2 18.4 65 4.5 S 7 9 4 5 1008.7 1007.2 2.6
06/02:30am 25.8 26.6 18.2 63 4.8 SSE 11 15 6 8 1008.9 1007.4 2.6
06/02:00am 25.5 24.6 18.2 64 4.7 S 20 28 11 15 1008.9 1007.4 2.6
06/01:30am 25.8 24.5 18.2 63 4.8 S 22 30 12 16 1009.1 1007.6 2.6
06/01:00am 26.0 24.3 18.2 62 5.0 S 24 35 13 19 1008.7 1007.2 2.6
06/12:30am 25.1 22.7 19.0 69 3.9 S 30 39 16 21 1008.7 1007.2 2.6
06/12:00am 24.5 21.8 19.3 73 3.4 SSW 32 41 17 22 1009.6 1008.1 2.6
 
Date/Time
EST
Temp
°C
App
Temp
°C
Dew
Point
°C
Rel
Hum
%
Delta-T
°C
Wind Press
QNH
hPa
Press
MSL
hPa
Rain since
9am
mm
Dir  Spd
km/h
Gust
km/h
Spd
kts
Gust
kts
05/11:47pm 24.0 20.5 19.5 76 2.9 SW 37 56 20 30 1009.5 1008.0 2.6
05/11:33pm 24.8 20.4 18.5 68 4.0 SSW 39 54 21 29 1009.0 1007.5 2.2
05/11:30pm 25.0 21.1 18.7 68 4.0 SSW 37 54 20 29 1008.8 1007.3 2.2
05/11:26pm 25.9 22.5 18.1 62 5.0 SSW 33 54 18 29 1008.7 1007.2 1.8
05/11:23pm 25.8 23.0 19.0 66 4.4 SSW 32 44 17 24 1008.8 1007.3 1.4
05/11:17pm 26.4 23.1 18.3 61 5.2 SSW 33 52 18 28 1009.0 1007.5 1.2
05/11:00pm 31.1 27.5 14.3 36 10.3 SSW 26 35 14 19 1009.5 1008.0 0.0
05/10:59pm 31.6 27.9 13.8 33 10.8 SSW 26 35 14 19 1009.4 1007.9 0.0
05/10:44pm 32.0 27.6 12.8 31 11.5 S 28 35 15 19 1008.2 1006.7 0.0
05/10:30pm 32.0 27.9 12.8 31 11.5 SSE 26 35 14 19 1007.6 1006.2 0.0
05/10:00pm 32.2 26.8 12.9 31 11.6 S 33 46 18 25 1007.0 1005.5 0.0
05/09:35pm 33.3 28.7 12.3 28 12.6 S 28 46 15 25 1006.8 1005.3 0.0
05/09:30pm 34.4 31.3 11.5 25 13.6 S 19 46 10 25 1006.8 1005.3 0.0
05/09:00pm 34.6 32.1 9.8 22 14.4 SSE 13 19 7 10 1006.0 1004.5 0.0
05/08:30pm 34.8 31.8 9.3 21 14.7 NNE 15 20 8 11 1005.5 1004.0 0.0
05/08:00pm 35.0 30.1 10.1 22 14.6 NE 26 33 14 18 1005.1 1003.6 0.0
05/07:52pm 35.4 30.2 10.4 22 14.7 NE 28 46 15 25 1005.0 1003.5 0.0
05/07:44pm 36.0 31.7 9.5 20 15.4 ENE 22 46 12 25 1004.7 1003.2 0.0
05/07:30pm 36.3 32.9 9.0 19 15.8 ENE 17 26 9 14 1004.3 1002.8 0.0
05/07:00pm 36.6 31.5 9.2 19 15.9 ENE 26 43 14 23 1004.4 1002.9 0.0
05/06:30pm 38.1 34.8 7.9 16 17.3 NNE 15 19 8 10 1004.1 1002.6 0.0
05/06:00pm 39.2 35.7 8.8 16 17.8 ESE 17 24 9 13 1003.6 1002.1 0.0
05/05:30pm 39.0 37.6 9.5 17 17.3 SW 7 13 4 7 1003.4 1001.9 0.0
05/05:01pm 37.7 35.7 10.1 19 16.3 SSE 11 20 6 11 1003.9 1002.4 0.0
05/05:00pm 37.6 36.2 10.8 20 16.0 SSE 9 20 5 11 1003.9 1002.4 0.0
05/04:30pm 40.7 38.4 9.0 15 18.6 NNE 11 22 6 12 1003.6 1002.1 0.0
05/04:00pm 39.8 36.6 8.3 15 18.3 NE 15 20 8 11 1003.9 1002.4 0.0
05/03:30pm 39.8 35.8 8.3 15 18.3 NE 19 26 10 14 1004.5 1003.0 0.0
05/03:00pm 40.4 36.5 8.8 15 18.6 E 19 26 10 14 1004.9 1003.4 0.0
05/02:30pm 39.6 37.0 10.8 18 17.3 E 15 30 8 16 1005.3 1003.8 0.0
05/02:00pm 38.9 34.6 9.4 17 17.4 NE 22 37 12 20 1005.8 1004.3 0.0
05/01:30pm 39.7 37.3 10.1 17 17.6 ENE 13 35 7 19 1006.4 1004.9 0.0
05/01:00pm 39.0 35.3 9.5 17 17.4 E 19 32 10 17 1006.9 1005.4 0.0
05/12:30pm 39.4 35.4 8.9 16 17.8 ENE 20 35 11 19 1007.4 1006.0 0.0
05/12:00pm 39.1 34.9 9.6 17 17.4 NE 22 39 12 21 1007.8 1006.4 0.0
05/11:30am 38.5 33.8 9.1 17 17.2 E 24 39 13 21 1008.5 1007.0 0.0
05/11:00am 38.5 34.7 9.1 17 17.2 E 19 30 10 16 1008.9 1007.4 0.0
05/10:30am 37.7 32.8 8.5 17 16.8 E 24 35 13 19 1009.3 1007.8 0.0
05/10:00am 37.8 32.9 6.7 15 17.5 ENE 22 32 12 17 1009.3 1007.8 0.0
05/09:30am 36.0 32.1 9.5 20 15.4 ENE 20 32 11 17 1009.6 1008.1 0.0
05/09:00am 35.2 31.9 10.9 23 14.4 ENE 19 26 10 14 1009.7 1008.2 0.0
05/08:30am 34.2 31.2 10.7 24 13.8 E 17 20 9 11 1010.0 1008.5 0.0
05/08:00am 33.6 30.7 10.9 25 13.3 SE 17 22 9 12 1009.9 1008.4 0.0
05/07:30am 32.1 28.6 10.8 27 12.4 SE 20 26 11 14 1009.8 1008.3 0.0
05/07:00am 30.8 27.7 10.2 28 11.8 SE 17 24 9 13 1009.7 1008.2 0.0
05/06:30am 29.2 26.9 10.3 31 10.8 SE 13 15 7 8 1009.4 1007.9 0.0
05/06:00am 28.8 26.8 10.0 31 10.7 SE 11 13 6 7 1008.8 1007.3 0.0
05/05:30am 28.1 26.5 10.3 33 10.1 SE 9 13 5 7 1008.6 1007.1 0.0
05/05:00am 27.1 26.1 9.0 32 10.0 SE 4 9 2 5 1008.3 1006.8 0.0
05/04:30am 29.1 27.6 9.3 29 11.1 E 7 11 4 6 1008.1 1006.6 0.0
05/04:00am 29.9 27.2 8.9 27 11.8 NNE 13 20 7 11 1007.5 1006.1 0.0
05/03:30am 29.8 27.2 9.3 28 11.5 ESE 13 15 7 8 1007.1 1005.6 0.0
05/03:00am 29.3 27.7 8.9 28 11.4 SSE 7 9 4 5 1007.1 1005.6 0.0
05/02:30am 29.3 27.7 8.9 28 11.4 SSE 7 9 4 5 1007.3 1005.9 0.0
05/02:00am 28.9 27.0 9.1 29 11.1 SSE 9 11 5 6 1007.4 1006.0 0.0
05/01:30am 28.6 27.1 9.3 30 10.8 E 7 9 4 5 1007.6 1006.2 0.0
05/01:00am 30.5 28.8 8.3 25 12.4 E 7 9 4 5 1007.7 1006.3 0.0
05/12:30am 31.4 28.8 7.8 23 13.1 E 11 13 6 7 1007.8 1006.4 0.0
05/12:00am 31.5 29.3 7.9 23 13.1 E 9 11 5 6 1008.1 1006.6 0.0
 
Date/Time
EST
Temp
°C
App
Temp
°C
Dew
Point
°C
Rel
Hum
%
Delta-T
°C
Wind Press
QNH
hPa
Press
MSL
hPa
Rain since
9am
mm
Dir  Spd
km/h
Gust
km/h
Spd
kts
Gust
kts
04/11:30pm 32.2 29.6 7.8 22 13.6 E 11 13 6 7 1008.4 1006.9 0.0
04/11:00pm 33.2 30.1 7.2 20 14.4 E 13 15 7 8 1008.4 1006.9 0.0
04/10:30pm 33.9 30.4 7.0 19 14.9 E 15 19 8 10 1008.3 1006.8 0.0
04/10:00pm 34.5 31.1 7.5 19 15.1 E 15 17 8 9 1008.1 1006.6 0.0
04/09:30pm 34.9 31.4 7.1 18 15.5 E 15 17 8 9 1007.7 1006.3 0.0
04/09:00pm 35.0 32.2 7.1 18 15.6 E 11 13 6 7 1007.5 1006.1 0.0
04/08:30pm 35.9 33.1 7.0 17 16.1 E 11 13 6 7 1007.2 1005.7 0.0
04/08:00pm 36.7 33.5 6.8 16 16.8 E 13 17 7 9 1007.1 1005.6 0.0
04/07:30pm 37.9 33.1 5.8 14 17.8 E 20 24 11 13 1006.8 1005.3 0.0
04/07:00pm 38.5 34.4 6.3 14 18.1 E 17 22 9 12 1006.5 1005.0 0.0
04/06:30pm 39.4 32.8 5.9 13 18.7 ESE 30 41 16 22 1006.1 1004.6 0.0
04/06:00pm 40.1 33.6 6.4 13 19.1 ESE 30 39 16 21 1005.7 1004.2 0.0
04/05:30pm 40.4 33.0 6.7 13 19.1 ESE 35 41 19 22 1005.6 1004.1 0.0
04/05:00pm 40.0 33.9 6.4 13 19.0 ESE 28 39 15 21 1005.6 1004.1 0.0
04/04:30pm 40.0 33.1 7.4 14 18.7 SE 33 44 18 24 1005.8 1004.3 0.0
04/04:00pm 40.4 35.1 6.7 13 19.2 ESE 24 39 13 21 1006.0 1004.5 0.0
04/03:30pm 40.6 35.4 8.9 15 18.6 ESE 26 44 14 24 1006.3 1004.8 0.0
04/03:00pm 40.0 34.5 7.4 14 18.7 ESE 26 41 14 22 1006.7 1005.2 0.0
04/02:30pm 40.1 35.0 7.5 14 18.7 ESE 24 43 13 23 1007.1 1005.6 0.0
04/02:01pm 40.5 34.9 8.8 15 18.6 ESE 28 46 15 25 1008.0 1006.5 0.0
04/02:00pm 40.3 34.3 8.7 15 18.5 ESE 30 46 16 25 1008.0 1006.5 0.0
04/01:32pm 40.2 34.1 9.6 16 18.1 E 32 50 17 27 1008.5 1007.0 0.0
04/01:30pm 39.4 32.5 8.9 16 17.8 E 35 50 19 27 1008.5 1007.0 0.0
04/01:13pm 38.9 33.1 9.4 17 17.3 SE 30 48 16 26 1008.9 1007.4 0.0
04/01:00pm 40.2 33.5 9.6 16 18.1 ESE 35 48 19 26 1009.1 1007.6 0.0
04/12:30pm 39.1 33.2 7.7 15 18.0 ENE 28 48 15 26 1009.5 1008.0 0.0
04/12:07pm 38.5 32.4 8.2 16 17.4 ESE 30 48 16 26 1010.1 1008.6 0.0
04/12:00pm 38.9 33.2 8.5 16 17.6 ESE 28 43 15 23 1010.3 1008.8 0.0
04/11:30am 37.6 31.4 9.2 18 16.5 E 32 48 17 26 1010.8 1009.3 0.0
04/11:00am 37.7 31.5 9.3 18 16.6 E 32 59 17 32 1011.4 1009.9 0.0
04/10:54am 38.7 33.3 10.9 19 16.7 E 30 59 16 32 1011.2 1009.7 0.0
04/10:30am 37.6 32.2 12.3 22 15.4 ESE 32 43 17 23 1011.6 1010.1 0.0
04/10:00am 36.7 31.5 12.8 23 14.6 E 32 43 17 23 1011.8 1010.3 0.0
04/09:30am 36.6 32.6 14.0 26 14.0 E 28 39 15 21 1012.0 1010.5 0.0

Other formats

Comma delimited format used in spreadsheet applications
http://www.bom.gov.au/fwo/IDQ60801/IDQ60801.94335.axf

JavaScript Object Notation format (JSON) in row-major order
http://www.bom.gov.au/fwo/IDQ60801/IDQ60801.94335.json

Data quality

Most of these data are generated automatically and are frequently updated. Quality checks on data are not normally performed. It is possible for incorrect values to appear. Refer to information at About Latest Weather Observations and please check the disclaimer before using these data.